Time;durP1;ratioP1;P1;durP2;ratioP2;P2;SDS_P1;SDS_P2;PMS_P1;PMS_P2;Temp;Humidity;BMP_temperature;BMP_pressure;BME280_temperature;BME280_humidity;BME280_pressure;Samples;Min_cycle;Max_cycle;Signal;HPM_P1;HPM_P2
2021/08/02 00:00:36;;;;;;;3.70;3.40;;;16.20;99.90;;;;;;4920427;29;20496;-74
2021/08/02 00:03:12;;;;;;;3.53;3.23;;;16.20;99.90;;;;;;4920197;29;20469;-75
2021/08/02 00:05:46;;;;;;;4.53;3.30;;;16.10;99.90;;;;;;4920307;29;20449;-74
2021/08/02 00:08:22;;;;;;;3.53;3.07;;;16.10;99.90;;;;;;4920555;29;20442;-75
2021/08/02 00:10:50;;;;;;;4.07;3.40;;;16.10;99.90;;;;;;4919682;29;20453;-74
2021/08/02 00:13:25;;;;;;;3.70;3.37;;;16.10;99.90;;;;;;4919916;29;20493;-74
2021/08/02 00:15:56;;;;;;;4.10;3.70;;;16.10;99.90;;;;;;4920195;29;20768;-74
2021/08/02 00:18:25;;;;;;;7.17;3.40;;;16.20;99.90;;;;;;4919962;29;20449;-74
2021/08/02 00:20:55;;;;;;;3.47;3.17;;;16.10;99.90;;;;;;4919770;29;20512;-74
2021/08/02 00:23:23;;;;;;;5.47;4.33;;;16.10;99.90;;;;;;4919900;29;20485;-74
2021/08/02 00:25:50;;;;;;;4.00;3.47;;;16.20;99.90;;;;;;4920050;29;20501;-74
2021/08/02 00:28:17;;;;;;;4.23;3.90;;;16.10;99.90;;;;;;4922247;29;20915;-75
2021/08/02 00:30:46;;;;;;;4.87;3.90;;;16.10;99.90;;;;;;4921933;29;20476;-75
2021/08/02 00:33:13;;;;;;;3.90;3.60;;;16.10;99.90;;;;;;4920427;29;20493;-75
2021/08/02 00:35:46;;;;;;;6.97;3.60;;;16.10;99.90;;;;;;4919421;29;20486;-75
2021/08/02 00:38:22;;;;;;;3.93;3.30;;;16.10;99.90;;;;;;4919652;29;20450;-75
2021/08/02 00:41:11;;;;;;;3.63;3.33;;;16.10;99.90;;;;;;4919850;29;20485;-75
2021/08/02 00:44:15;;;;;;;4.33;3.57;;;16.10;99.90;;;;;;4919406;29;20469;-74
2021/08/02 00:46:47;;;;;;;4.70;4.20;;;16.10;99.90;;;;;;4925475;29;20464;-73
2021/08/02 00:49:16;;;;;;;3.67;3.37;;;16.10;99.90;;;;;;4925208;29;20446;-72
2021/08/02 00:51:50;;;;;;;4.37;3.90;;;16.10;99.90;;;;;;4923598;29;20480;-73
2021/08/02 00:54:20;;;;;;;3.87;3.57;;;16.10;99.90;;;;;;4926864;29;20891;-73
2021/08/02 00:56:48;;;;;;;4.07;3.77;;;16.10;99.90;;;;;;4926816;29;20480;-73
2021/08/02 00:59:15;;;;;;;4.23;3.90;;;16.10;99.90;;;;;;4926649;29;20472;-74
2021/08/02 01:01:44;;;;;;;4.27;3.87;;;16.10;99.90;;;;;;4926927;29;20476;-73
2021/08/02 01:04:13;;;;;;;5.20;3.50;;;16.10;99.90;;;;;;4923166;29;20489;-73
2021/08/02 01:06:40;;;;;;;5.00;4.50;;;16.10;99.90;;;;;;4922715;29;20469;-73
2021/08/02 01:09:08;;;;;;;4.90;4.10;;;16.10;99.90;;;;;;4927175;29;20493;-73
2021/08/02 01:11:38;;;;;;;4.50;4.10;;;16.10;99.90;;;;;;4925719;29;20465;-73
2021/08/02 01:14:07;;;;;;;3.97;3.53;;;16.10;99.90;;;;;;4926808;29;20485;-73
2021/08/02 01:16:36;;;;;;;4.60;4.20;;;16.10;99.90;;;;;;4928284;29;20496;-73
2021/08/02 01:19:09;;;;;;;4.50;4.10;;;16.10;99.90;;;;;;4927390;29;20521;-73
2021/08/02 01:21:39;;;;;;;4.80;4.20;;;16.10;99.90;;;;;;4928065;29;20446;-73
2021/08/02 01:24:09;;;;;;;4.37;3.67;;;16.10;99.90;;;;;;4928690;29;20469;-73
2021/08/02 01:27:20;;;;;;;5.10;4.67;;;16.10;99.90;;;;;;4927283;29;20458;-73
2021/08/02 01:30:13;;;;;;;4.30;3.90;;;16.10;99.90;;;;;;4861656;29;20464;-74
2021/08/02 01:32:39;;;;;;;4.90;4.40;;;16.10;99.90;;;;;;4919989;29;20464;-74
2021/08/02 01:35:09;;;;;;;4.77;4.37;;;16.00;99.90;;;;;;4919117;29;20461;-74
2021/08/02 01:37:36;;;;;;;9.93;4.37;;;16.00;99.90;;;;;;4918901;29;20457;-73
2021/08/02 01:40:05;;;;;;;4.90;4.13;;;16.00;99.90;;;;;;4918643;29;20461;-74
2021/08/02 01:42:32;;;;;;;5.83;4.30;;;16.00;99.90;;;;;;4918497;29;20778;-74
2021/08/02 01:44:58;;;;;;;4.80;4.37;;;16.00;99.90;;;;;;4918453;29;20488;-74
2021/08/02 01:47:31;;;;;;;4.60;4.20;;;16.00;99.90;;;;;;4918338;29;20938;-74
2021/08/02 01:50:05;;;;;;;4.73;3.83;;;16.00;99.90;;;;;;4918852;29;20540;-74
2021/08/02 01:52:39;;;;;;;4.87;4.47;;;16.00;99.90;;;;;;4918356;29;20446;-74
2021/08/02 01:55:15;;;;;;;4.70;3.87;;;16.00;99.90;;;;;;4918734;29;20461;-74
2021/08/02 01:57:49;;;;;;;3.83;3.50;;;16.00;99.90;;;;;;4919489;29;20455;-74
2021/08/02 02:00:17;;;;;;;4.27;3.87;;;16.00;99.90;;;;;;4919734;29;20833;-74
2021/08/02 02:02:50;;;;;;;3.47;3.17;;;16.00;99.90;;;;;;4920096;29;20457;-74
2021/08/02 02:05:19;;;;;;;4.33;3.63;;;16.00;99.90;;;;;;4921201;29;20456;-74
2021/08/02 02:07:50;;;;;;;3.97;3.67;;;16.10;99.90;;;;;;4921187;29;20505;-73
2021/08/02 02:10:21;;;;;;;3.90;3.43;;;16.10;99.90;;;;;;4921628;29;20453;-74
2021/08/02 02:12:49;;;;;;;4.90;3.43;;;16.00;99.90;;;;;;4925891;29;20543;-74
2021/08/02 02:15:18;;;;;;;3.13;2.83;;;16.00;99.90;;;;;;4907025;29;20489;-74
2021/08/02 02:17:46;;;;;;;3.40;3.10;;;16.10;99.90;;;;;;4907440;29;20488;-74
2021/08/02 02:20:14;;;;;;;4.57;3.10;;;16.10;99.90;;;;;;4905887;29;20477;-74
2021/08/02 02:22:42;;;;;;;5.13;3.30;;;16.10;99.90;;;;;;4904191;29;20477;-74
2021/08/02 02:25:12;;;;;;;2.97;2.70;;;16.10;99.90;;;;;;4904114;29;20470;-75
2021/08/02 02:27:42;;;;;;;5.20;2.63;;;16.10;99.90;;;;;;4906008;29;20466;-74
2021/08/02 02:30:10;;;;;;;2.90;2.70;;;16.10;99.90;;;;;;4905651;29;20458;-75
2021/08/02 02:32:37;;;;;;;3.30;2.70;;;16.10;99.90;;;;;;4904280;29;20458;-74
2021/08/02 02:35:06;;;;;;;4.10;2.60;;;16.10;99.90;;;;;;4904445;29;20797;-74
2021/08/02 02:37:33;;;;;;;2.67;2.47;;;16.10;99.90;;;;;;4904752;29;20475;-74
2021/08/02 02:40:00;;;;;;;3.33;2.67;;;16.10;99.90;;;;;;4905243;29;20908;-74
2021/08/02 02:42:30;;;;;;;2.93;2.73;;;16.10;99.90;;;;;;4905170;29;20470;-74
2021/08/02 02:44:59;;;;;;;5.57;2.97;;;16.10;99.90;;;;;;4906789;29;20797;-73
2021/08/02 02:47:26;;;;;;;2.97;2.57;;;16.10;99.90;;;;;;4906808;29;20489;-73
2021/08/02 02:49:55;;;;;;;3.13;2.50;;;16.10;99.90;;;;;;4905676;29;20466;-73
2021/08/02 02:52:23;;;;;;;4.27;2.90;;;16.10;99.90;;;;;;4908227;29;20533;-73
2021/08/02 02:54:52;;;;;;;3.37;2.90;;;16.10;99.90;;;;;;4908363;29;20458;-73
2021/08/02 02:57:19;;;;;;;4.80;2.60;;;16.10;99.90;;;;;;4906071;29;20470;-73
2021/08/02 02:59:46;;;;;;;2.83;2.40;;;16.10;99.90;;;;;;4907724;29;20916;-72
2021/08/02 03:02:16;;;;;;;3.17;2.87;;;16.20;99.90;;;;;;4907054;29;20462;-73
2021/08/02 03:04:47;;;;;;;5.10;2.87;;;16.10;99.90;;;;;;4906997;29;20569;-73
2021/08/02 03:07:16;;;;;;;3.20;2.93;;;16.10;99.90;;;;;;4905076;29;20506;-73
2021/08/02 03:09:44;;;;;;;4.87;2.80;;;16.10;99.90;;;;;;4904258;29;20470;-73
2021/08/02 03:12:11;;;;;;;3.97;2.80;;;16.10;99.90;;;;;;4908266;29;20475;-74
2021/08/02 03:14:38;;;;;;;4.43;2.90;;;16.10;99.90;;;;;;4921075;29;20492;-74
2021/08/02 03:17:07;;;;;;;3.73;3.40;;;16.10;99.90;;;;;;4928135;29;20472;-73
2021/08/02 03:19:36;;;;;;;3.73;3.40;;;16.00;99.90;;;;;;4927438;29;20497;-74
2021/08/02 03:22:13;;;;;;;3.93;3.23;;;16.00;99.90;;;;;;4927868;29;20461;-73
2021/08/02 03:24:45;;;;;;;4.20;3.80;;;15.90;99.90;;;;;;4927767;29;20469;-73
2021/08/02 03:27:21;;;;;;;3.97;3.57;;;15.90;99.90;;;;;;4940187;29;20460;-73
2021/08/02 03:29:51;;;;;;;3.57;3.23;;;15.80;99.90;;;;;;4934761;29;20442;-72
2021/08/02 03:32:19;;;;;;;4.23;3.57;;;15.80;99.90;;;;;;4927002;29;20462;-72
2021/08/02 03:34:53;;;;;;;4.20;3.70;;;15.80;99.90;;;;;;4927568;29;20820;-72
2021/08/02 03:37:23;;;;;;;4.10;3.20;;;15.70;99.90;;;;;;4925930;29;20465;-71
2021/08/02 03:39:52;;;;;;;2.70;2.50;;;15.70;99.90;;;;;;4924960;29;20478;-71
2021/08/02 03:42:20;;;;;;;4.90;3.03;;;15.70;99.90;;;;;;4927798;29;21001;-71
2021/08/02 03:44:48;;;;;;;10.33;3.30;;;15.70;99.90;;;;;;4924908;29;20485;-72
2021/08/02 03:47:15;;;;;;;3.50;3.20;;;15.70;99.90;;;;;;4924472;29;20461;-71
2021/08/02 03:49:42;;;;;;;5.23;2.60;;;15.70;99.90;;;;;;4924380;29;20461;-72
2021/08/02 03:52:10;;;;;;;5.90;3.10;;;15.70;99.90;;;;;;4923696;29;20857;-71
2021/08/02 03:54:37;;;;;;;7.10;3.40;;;15.70;99.90;;;;;;4925831;29;20782;-71
2021/08/02 03:57:05;;;;;;;4.80;3.40;;;15.70;99.90;;;;;;4922353;29;20458;-71
2021/08/02 03:59:31;;;;;;;3.10;2.80;;;15.70;99.90;;;;;;4920549;29;20461;-71
2021/08/02 04:01:58;;;;;;;3.70;3.30;;;15.70;99.90;;;;;;4920351;29;20484;-72
2021/08/02 04:04:27;;;;;;;4.10;3.40;;;15.70;99.90;;;;;;4920342;29;20481;-71
2021/08/02 04:06:54;;;;;;;10.43;3.60;;;15.60;99.90;;;;;;4919802;29;20930;-71
2021/08/02 04:09:23;;;;;;;3.47;3.10;;;15.60;99.90;;;;;;4920199;29;20552;-71
2021/08/02 04:11:51;;;;;;;4.67;2.80;;;15.60;99.90;;;;;;4919795;29;20476;-71
2021/08/02 04:14:18;;;;;;;5.10;3.23;;;15.60;99.90;;;;;;4920041;29;20485;-71
2021/08/02 04:16:45;;;;;;;3.30;2.47;;;15.60;99.90;;;;;;4919910;29;20472;-71
2021/08/02 04:19:11;;;;;;;3.20;3.00;;;15.60;99.90;;;;;;4920153;29;20914;-71
2021/08/02 04:21:38;;;;;;;4.13;2.67;;;15.70;99.90;;;;;;4919737;29;20473;-71
2021/08/02 04:24:06;;;;;;;3.00;2.80;;;15.70;99.90;;;;;;4919571;29;20492;-72
2021/08/02 04:26:34;;;;;;;5.00;2.73;;;15.70;99.90;;;;;;4919640;29;20461;-72
2021/08/02 04:29:01;;;;;;;2.70;2.50;;;15.70;99.90;;;;;;4920019;29;20770;-72
2021/08/02 04:31:32;;;;;;;3.70;2.90;;;15.70;99.90;;;;;;4919626;29;20466;-72
2021/08/02 04:33:59;;;;;;;7.20;2.70;;;15.70;99.90;;;;;;4919959;29;20781;-72
2021/08/02 04:36:27;;;;;;;2.83;2.43;;;15.80;99.90;;;;;;4919646;29;20919;-72
2021/08/02 04:38:53;;;;;;;3.40;2.10;;;15.80;99.90;;;;;;4919567;29;20771;-72
2021/08/02 04:41:21;;;;;;;2.87;2.20;;;15.80;99.90;;;;;;4919653;29;20466;-72
2021/08/02 04:43:50;;;;;;;2.90;2.17;;;15.90;99.90;;;;;;4919436;29;20497;-72
2021/08/02 04:46:17;;;;;;;4.90;2.23;;;15.80;99.90;;;;;;4919222;29;20465;-71
2021/08/02 04:48:44;;;;;;;5.07;2.57;;;15.80;99.90;;;;;;4919421;29;20465;-71
2021/08/02 04:51:10;;;;;;;2.97;2.60;;;15.80;99.90;;;;;;4919495;29;20469;-72
2021/08/02 04:53:37;;;;;;;3.83;2.47;;;15.80;99.90;;;;;;4919034;29;20472;-72
2021/08/02 04:56:04;;;;;;;4.60;2.40;;;15.80;99.90;;;;;;4919613;29;20472;-72
2021/08/02 04:58:32;;;;;;;3.00;2.40;;;15.80;99.90;;;;;;4919040;29;20473;-71
2021/08/02 05:01:00;;;;;;;2.80;1.97;;;15.80;99.90;;;;;;4919195;29;20508;-71
2021/08/02 05:03:26;;;;;;;2.50;1.90;;;15.80;99.90;;;;;;4919203;29;20499;-71
2021/08/02 05:05:54;;;;;;;4.93;2.70;;;15.80;99.90;;;;;;4919213;29;20525;-72
2021/08/02 05:08:20;;;;;;;7.73;2.53;;;15.70;99.90;;;;;;4919211;29;20483;-72
2021/08/02 05:10:49;;;;;;;3.27;2.63;;;15.70;99.90;;;;;;4919023;29;20461;-71
2021/08/02 05:13:16;;;;;;;3.00;2.40;;;15.70;99.90;;;;;;4918618;29;20824;-72
2021/08/02 05:15:43;;;;;;;2.93;2.70;;;15.70;99.90;;;;;;4918996;29;20970;-71
2021/08/02 05:18:14;;;;;;;3.10;2.50;;;15.70;99.90;;;;;;4918763;29;20461;-71
2021/08/02 05:20:41;;;;;;;5.40;2.40;;;15.80;99.90;;;;;;4919038;29;20768;-71
2021/08/02 05:23:07;;;;;;;3.00;2.70;;;15.80;99.90;;;;;;4918878;29;20461;-73
2021/08/02 05:25:34;;;;;;;2.90;2.37;;;15.80;99.90;;;;;;4918555;29;20492;-71
2021/08/02 05:28:01;;;;;;;2.83;2.60;;;15.80;99.90;;;;;;4918605;29;20540;-71
2021/08/02 05:30:28;;;;;;;2.40;2.20;;;15.80;99.90;;;;;;4918276;29;20461;-73
2021/08/02 05:32:55;;;;;;;2.73;2.40;;;15.90;99.90;;;;;;4918744;29;20788;-72
2021/08/02 05:35:23;;;;;;;3.23;2.70;;;15.90;99.90;;;;;;4918805;29;20533;-75
2021/08/02 05:37:50;;;;;;;6.83;2.97;;;16.00;99.90;;;;;;4918604;29;20465;-73
2021/08/02 05:40:17;;;;;;;4.70;2.67;;;16.10;99.90;;;;;;4918558;29;20769;-73
2021/08/02 05:42:43;;;;;;;6.40;3.00;;;16.10;99.90;;;;;;4918740;29;20461;-73
2021/08/02 05:45:11;;;;;;;4.23;3.13;;;16.10;99.90;;;;;;4918364;29;20489;-76
2021/08/02 05:47:39;;;;;;;4.60;2.80;;;16.10;99.90;;;;;;4918646;29;20476;-74
2021/08/02 05:50:10;;;;;;;5.13;2.87;;;16.10;99.90;;;;;;4918335;29;20498;-73
2021/08/02 05:52:38;;;;;;;5.97;2.63;;;16.10;99.90;;;;;;4918890;29;20774;-74
2021/08/02 05:55:06;;;;;;;4.00;3.10;;;16.20;99.90;;;;;;4918507;29;20457;-73
2021/08/02 05:57:33;;;;;;;4.23;2.77;;;16.30;99.90;;;;;;4918250;29;20469;-73
2021/08/02 05:59:59;;;;;;;6.27;3.27;;;16.30;99.90;;;;;;4918507;29;20457;-75
2021/08/02 06:02:26;;;;;;;5.00;2.50;;;16.40;99.90;;;;;;4918432;29;20473;-74
2021/08/02 06:04:53;;;;;;;6.27;2.83;;;16.50;99.90;;;;;;4917984;29;20488;-74
2021/08/02 06:07:20;;;;;;;3.33;3.03;;;16.60;99.90;;;;;;4918263;29;20493;-74
2021/08/02 06:09:51;;;;;;;3.93;2.63;;;16.60;99.90;;;;;;4918275;29;20465;-74
2021/08/02 06:12:18;;;;;;;3.20;2.40;;;16.60;99.90;;;;;;4918240;29;20485;-74
2021/08/02 06:14:45;;;;;;;4.07;3.03;;;16.50;99.90;;;;;;4917646;29;20544;-73
2021/08/02 06:17:11;;;;;;;4.07;2.60;;;16.50;99.90;;;;;;4919050;29;20469;-74
2021/08/02 06:19:38;;;;;;;6.53;3.27;;;16.50;99.90;;;;;;4918102;29;20470;-74
2021/08/02 06:22:05;;;;;;;4.63;2.17;;;16.60;99.90;;;;;;4918125;29;20927;-74
2021/08/02 06:24:32;;;;;;;4.13;2.60;;;16.70;99.90;;;;;;4917673;29;20485;-73
2021/08/02 06:27:00;;;;;;;5.70;2.50;;;16.70;99.90;;;;;;4918204;29;20484;-74
2021/08/02 06:29:26;;;;;;;6.20;2.53;;;16.70;99.90;;;;;;4917868;29;20804;-74
2021/08/02 06:31:56;;;;;;;2.30;2.10;;;16.70;99.90;;;;;;4917922;29;20900;-73
2021/08/02 06:34:22;;;;;;;2.97;2.33;;;16.60;99.90;;;;;;4917959;29;20462;-74
2021/08/02 06:36:49;;;;;;;4.40;2.77;;;16.70;99.90;;;;;;4917504;29;20465;-74
2021/08/02 06:39:16;;;;;;;2.80;2.23;;;16.70;99.90;;;;;;4918000;29;20462;-74
2021/08/02 06:41:45;;;;;;;5.50;2.53;;;16.70;99.90;;;;;;4917555;29;20461;-74
2021/08/02 06:44:13;;;;;;;3.77;1.93;;;16.80;99.90;;;;;;4917763;29;20475;-73
2021/08/02 06:46:40;;;;;;;5.93;2.07;;;16.80;99.90;;;;;;4917808;29;20961;-74
2021/08/02 06:49:07;;;;;;;3.17;1.67;;;16.90;99.90;;;;;;4917540;29;20922;-74
2021/08/02 06:51:34;;;;;;;2.40;1.80;;;17.00;99.90;;;;;;4917793;29;20476;-74
2021/08/02 06:54:00;;;;;;;4.40;1.93;;;17.10;99.90;;;;;;4917868;29;20799;-73
2021/08/02 06:56:27;;;;;;;4.00;2.27;;;17.20;99.90;;;;;;4917649;29;20492;-74
2021/08/02 06:58:54;;;;;;;2.13;1.60;;;17.20;99.90;;;;;;4921152;29;20498;-74
2021/08/02 07:01:22;;;;;;;3.37;1.53;;;17.10;99.90;;;;;;4921115;29;20476;-74
2021/08/02 07:03:49;;;;;;;3.43;1.30;;;17.10;99.90;;;;;;4920792;29;20940;-73
2021/08/02 07:06:15;;;;;;;4.23;1.50;;;17.10;99.90;;;;;;4920442;29;20492;-74
2021/08/02 07:08:42;;;;;;;2.27;1.10;;;17.10;99.90;;;;;;4921402;29;20470;-75
2021/08/02 07:11:09;;;;;;;3.70;1.30;;;17.10;99.90;;;;;;4920577;29;20468;-74
2021/08/02 07:13:36;;;;;;;1.90;1.40;;;17.10;99.90;;;;;;4920488;29;20485;-74
2021/08/02 07:16:03;;;;;;;4.97;1.60;;;17.10;99.90;;;;;;4921018;29;20458;-73
2021/08/02 07:18:33;;;;;;;3.03;1.23;;;17.10;99.90;;;;;;4920888;29;20465;-72
2021/08/02 07:21:02;;;;;;;2.67;1.13;;;17.20;99.90;;;;;;4920393;29;20472;-72
2021/08/02 07:23:29;;;;;;;4.70;1.90;;;17.30;99.90;;;;;;4920409;29;20465;-71
2021/08/02 07:25:56;;;;;;;4.60;1.50;;;17.40;99.90;;;;;;4920418;29;20599;-71
2021/08/02 07:28:23;;;;;;;5.50;1.50;;;17.50;99.90;;;;;;4920403;29;20462;-71
2021/08/02 07:30:50;;;;;;;3.47;1.43;;;17.50;99.90;;;;;;4920574;29;20755;-71
2021/08/02 07:33:17;;;;;;;2.20;1.40;;;17.60;99.90;;;;;;4920591;29;20461;-72
2021/08/02 07:35:45;;;;;;;2.40;1.70;;;17.70;99.90;;;;;;4920718;29;20798;-72
2021/08/02 07:38:12;;;;;;;3.63;1.50;;;17.70;99.90;;;;;;4920930;29;20471;-72
2021/08/02 07:40:39;;;;;;;5.63;1.87;;;17.80;99.90;;;;;;4920646;29;20480;-72
2021/08/02 07:43:06;;;;;;;3.37;1.80;;;17.90;99.90;;;;;;4920707;29;20469;-72
2021/08/02 07:45:32;;;;;;;2.37;1.03;;;18.00;99.90;;;;;;4920082;29;20496;-72
2021/08/02 07:47:59;;;;;;;2.60;1.20;;;18.00;99.90;;;;;;4920403;29;20477;-72
2021/08/02 07:50:26;;;;;;;2.00;1.40;;;17.90;99.90;;;;;;4920463;29;20480;-72
2021/08/02 07:52:54;;;;;;;3.10;1.47;;;17.90;99.90;;;;;;4920041;29;20462;-72
2021/08/02 07:55:21;;;;;;;2.43;1.33;;;17.80;99.90;;;;;;4920065;29;20472;-72
2021/08/02 07:57:48;;;;;;;4.50;1.23;;;17.80;99.90;;;;;;4920259;29;20472;-72
2021/08/02 08:00:17;;;;;;;1.20;1.10;;;17.90;99.90;;;;;;4919802;29;20942;-72
2021/08/02 08:02:44;;;;;;;5.63;1.63;;;17.90;99.90;;;;;;4920509;29;20504;-72
2021/08/02 08:05:12;;;;;;;1.57;1.10;;;18.10;99.90;;;;;;4920578;29;20516;-72
2021/08/02 08:07:43;;;;;;;3.47;1.17;;;18.10;99.90;;;;;;4920756;29;20472;-72
2021/08/02 08:10:12;;;;;;;2.43;1.27;;;18.00;99.90;;;;;;4920269;29;20472;-73
2021/08/02 08:12:39;;;;;;;3.00;1.40;;;17.90;99.90;;;;;;4920924;29;20465;-72
2021/08/02 08:15:07;;;;;;;1.93;0.93;;;17.90;99.90;;;;;;4921246;29;20531;-73
2021/08/02 08:17:34;;;;;;;1.67;1.10;;;18.00;99.90;;;;;;4920745;29;20469;-74
2021/08/02 08:20:01;;;;;;;3.00;1.20;;;18.00;99.90;;;;;;4921416;29;20465;-73
2021/08/02 08:22:28;;;;;;;2.47;1.50;;;18.10;99.90;;;;;;4921607;29;20536;-73
2021/08/02 08:24:54;;;;;;;3.93;1.13;;;18.20;99.90;;;;;;4921248;29;20489;-74
2021/08/02 08:27:22;;;;;;;2.20;1.00;;;18.20;99.90;;;;;;4921082;29;20465;-73
2021/08/02 08:29:50;;;;;;;2.30;1.30;;;18.10;99.90;;;;;;4922727;29;20461;-73
2021/08/02 08:32:17;;;;;;;5.30;1.30;;;18.20;99.90;;;;;;4921793;29;20485;-73
2021/08/02 08:34:43;;;;;;;2.13;1.23;;;18.20;99.90;;;;;;4921274;29;20472;-73
2021/08/02 08:37:10;;;;;;;4.57;1.33;;;18.20;99.90;;;;;;4921134;29;20792;-73
2021/08/02 08:39:37;;;;;;;1.80;1.10;;;18.40;99.90;;;;;;4921110;29;20468;-73
2021/08/02 08:42:05;;;;;;;2.60;1.30;;;18.60;99.90;;;;;;4920567;29;20473;-73
2021/08/02 08:44:34;;;;;;;2.03;1.40;;;18.50;99.90;;;;;;4920631;29;20461;-73
2021/08/02 08:47:00;;;;;;;3.97;1.20;;;18.50;99.90;;;;;;4920958;29;20484;-73
2021/08/02 08:49:27;;;;;;;6.30;1.20;;;18.50;99.90;;;;;;4920027;29;20461;-72
2021/08/02 08:51:54;;;;;;;2.77;1.20;;;18.60;99.90;;;;;;4919347;29;20493;-71
2021/08/02 08:54:21;;;;;;;3.67;1.30;;;18.70;99.90;;;;;;4919291;29;20910;-72
2021/08/02 08:56:48;;;;;;;5.33;1.47;;;18.80;99.90;;;;;;4919098;29;20450;-72
2021/08/02 08:59:16;;;;;;;1.73;1.23;;;18.80;99.90;;;;;;4918564;29;20977;-72
2021/08/02 09:01:44;;;;;;;2.80;1.30;;;18.70;99.90;;;;;;4919535;29;20469;-73
2021/08/02 09:04:11;;;;;;;4.90;1.20;;;18.70;99.90;;;;;;4919756;29;20917;-73
2021/08/02 09:06:45;;;;;;;4.90;1.50;;;18.60;99.90;;;;;;4919041;29;20485;-73
2021/08/02 09:09:23;;;;;;;2.87;1.77;;;18.60;99.90;;;;;;4919083;29;20460;-72
2021/08/02 09:11:50;;;;;;;2.33;1.40;;;18.60;99.90;;;;;;4918919;29;20445;-73
2021/08/02 09:14:17;;;;;;;1.73;1.37;;;18.70;99.90;;;;;;4918023;29;20489;-71
2021/08/02 09:16:57;;;;;;;1.50;1.10;;;18.80;99.90;;;;;;4918202;29;20462;-72
2021/08/02 09:19:24;;;;;;;2.90;1.23;;;18.80;99.90;;;;;;4917801;29;20477;-72
2021/08/02 09:21:53;;;;;;;1.47;1.20;;;18.90;99.90;;;;;;4917894;29;20854;-72
2021/08/02 09:24:29;;;;;;;1.50;0.90;;;19.10;99.90;;;;;;4918067;29;20854;-72
2021/08/02 09:26:56;;;;;;;3.33;1.20;;;19.10;99.90;;;;;;4917796;29;20528;-72
2021/08/02 09:29:27;;;;;;;2.70;1.27;;;19.20;99.90;;;;;;4917683;29;20834;-72
2021/08/02 09:31:56;;;;;;;3.90;1.10;;;19.40;99.90;;;;;;4918163;29;20505;-72
2021/08/02 09:34:23;;;;;;;3.90;1.20;;;19.50;99.90;;;;;;4918225;29;20810;-72
2021/08/02 09:36:55;;;;;;;2.93;1.37;;;19.60;99.90;;;;;;4917819;29;20895;-72
2021/08/02 09:39:23;;;;;;;3.50;1.40;;;19.60;99.90;;;;;;4917943;29;20449;-73
2021/08/02 09:41:49;;;;;;;2.00;1.23;;;19.60;99.90;;;;;;4917784;29;20801;-72
2021/08/02 09:44:20;;;;;;;1.83;1.30;;;19.50;99.90;;;;;;4917814;29;20461;-72
2021/08/02 09:46:56;;;;;;;1.50;1.27;;;19.50;99.90;;;;;;4917449;29;20496;-72
2021/08/02 09:49:22;;;;;;;1.60;1.10;;;19.50;99.90;;;;;;4917839;29;20464;-73
2021/08/02 09:51:49;;;;;;;4.43;1.30;;;19.50;99.90;;;;;;4917740;29;20927;-73
2021/08/02 09:54:24;;;;;;;2.70;1.13;;;19.60;99.90;;;;;;4917771;29;20568;-73
2021/08/02 09:56:52;;;;;;;2.07;1.27;;;19.80;99.90;;;;;;4917754;29;20441;-73
2021/08/02 09:59:19;;;;;;;1.77;1.17;;;20.00;99.90;;;;;;4917435;29;20469;-72
2021/08/02 10:01:49;;;;;;;1.80;1.40;;;20.20;99.90;;;;;;4917420;29;20497;-72
2021/08/02 10:04:18;;;;;;;1.90;1.20;;;20.10;99.90;;;;;;4917337;29;20504;-72
2021/08/02 10:06:45;;;;;;;2.53;1.40;;;20.10;99.90;;;;;;4917248;29;20579;-72
2021/08/02 10:09:15;;;;;;;3.50;1.33;;;20.10;99.90;;;;;;4917783;29;20465;-72
2021/08/02 10:11:42;;;;;;;4.37;1.43;;;20.00;99.90;;;;;;4917389;29;20456;-72
2021/08/02 10:14:14;;;;;;;2.17;1.13;;;19.80;99.90;;;;;;4880836;29;1082153;-73
2021/08/02 10:16:45;;;;;;;2.13;1.07;;;19.60;99.90;;;;;;4918166;29;20181;-72
2021/08/02 10:19:14;;;;;;;1.80;1.10;;;19.70;99.90;;;;;;4918214;29;20855;-73
2021/08/02 10:21:45;;;;;;;2.50;1.20;;;19.70;99.90;;;;;;4918019;29;20931;-73
2021/08/02 10:24:14;;;;;;;2.90;1.50;;;19.70;99.90;;;;;;4918000;29;20473;-72
2021/08/02 10:26:42;;;;;;;2.03;1.20;;;19.70;99.90;;;;;;4918108;29;20489;-72
2021/08/02 10:29:10;;;;;;;2.13;1.00;;;19.60;99.90;;;;;;4918660;29;20476;-72
2021/08/02 10:31:43;;;;;;;2.70;1.10;;;19.50;99.90;;;;;;4918408;29;20472;-72
2021/08/02 10:34:15;;;;;;;1.60;1.20;;;19.70;99.90;;;;;;4921410;29;20454;-72
2021/08/02 10:36:43;;;;;;;2.20;1.10;;;19.90;99.90;;;;;;4921648;29;20792;-72
2021/08/02 10:39:21;;;;;;;4.30;1.77;;;20.00;99.90;;;;;;4921320;29;20804;-72
2021/08/02 10:41:48;;;;;;;2.00;1.00;;;20.10;99.90;;;;;;4921155;29;20938;-72
2021/08/02 10:44:17;;;;;;;1.83;1.00;;;20.10;99.90;;;;;;4921710;29;20778;-72
2021/08/02 10:46:44;;;;;;;4.43;1.07;;;20.10;99.90;;;;;;4921292;29;20488;-72
2021/08/02 10:49:12;;;;;;;1.53;1.20;;;19.90;99.90;;;;;;4921147;29;20937;-72
2021/08/02 10:51:48;;;;;;;1.47;1.00;;;19.80;99.90;;;;;;4921128;29;20961;-72
2021/08/02 10:54:15;;;;;;;1.30;1.00;;;19.60;99.90;;;;;;4921295;29;20456;-72
2021/08/02 10:56:42;;;;;;;2.90;1.20;;;19.60;99.90;;;;;;4921473;29;20495;-72
2021/08/02 10:59:09;;;;;;;3.77;1.20;;;19.50;99.90;;;;;;4921251;29;20465;-72
2021/08/02 11:01:45;;;;;;;3.10;1.10;;;19.50;99.90;;;;;;4921214;29;20477;-72
2021/08/02 11:04:12;;;;;;;3.83;1.17;;;19.40;99.90;;;;;;4921139;29;20751;-72
2021/08/02 11:06:40;;;;;;;11.53;1.50;;;19.40;99.90;;;;;;4920929;29;20489;-72
2021/08/02 11:09:11;;;;;;;3.27;1.10;;;19.40;99.90;;;;;;4921175;29;20465;-72
2021/08/02 11:11:37;;;;;;;2.70;0.90;;;19.40;99.90;;;;;;4920885;29;20484;-72
2021/08/02 11:14:06;;;;;;;2.33;1.47;;;19.60;99.90;;;;;;4920765;29;20493;-72
2021/08/02 11:16:39;;;;;;;2.80;1.30;;;19.70;99.90;;;;;;4921039;29;20532;-71
2021/08/02 11:19:14;;;;;;;1.93;1.60;;;19.90;99.90;;;;;;4924557;29;20466;-71
2021/08/02 11:21:41;;;;;;;2.10;1.17;;;20.20;99.90;;;;;;4921265;29;20449;-73
2021/08/02 11:24:11;;;;;;;2.63;1.20;;;20.30;99.90;;;;;;4920768;29;20472;-73
2021/08/02 11:26:51;;;;;;;1.60;1.00;;;20.40;99.90;;;;;;4920981;29;20517;-76
2021/08/02 11:29:19;;;;;;;3.03;1.10;;;20.50;99.90;;;;;;4921215;29;20513;-73
2021/08/02 11:31:54;;;;;;;2.50;1.00;;;20.70;99.90;;;;;;4921103;29;20465;-74
2021/08/02 11:34:24;;;;;;;2.07;1.20;;;21.00;99.90;;;;;;4920763;29;20519;-72
2021/08/02 11:37:01;;;;;;;1.37;1.10;;;21.40;99.90;;;;;;4920543;29;20490;-74
2021/08/02 11:39:29;;;;;;;1.97;1.10;;;21.90;99.90;;;;;;4920821;29;20457;-73
2021/08/02 11:42:01;;;;;;;1.70;0.97;;;22.00;99.90;;;;;;4920645;29;20815;-74
2021/08/02 11:44:28;;;;;;;1.73;1.27;;;22.10;99.90;;;;;;4920449;29;20797;-73
2021/08/02 11:46:56;;;;;;;2.57;1.37;;;22.10;99.90;;;;;;4920719;29;20524;-72
2021/08/02 11:49:23;;;;;;;1.90;1.00;;;22.40;99.90;;;;;;4920476;29;20472;-73
2021/08/02 11:51:52;;;;;;;1.60;1.17;;;23.00;99.90;;;;;;4920459;29;20465;-72
2021/08/02 11:54:20;;;;;;;2.53;1.03;;;23.20;99.90;;;;;;4921327;29;20780;-74
2021/08/02 11:56:48;;;;;;;2.50;1.00;;;23.10;99.90;;;;;;4920676;29;20465;-74
2021/08/02 11:59:26;;;;;;;1.70;1.10;;;23.30;99.90;;;;;;4920248;29;20512;-71
2021/08/02 12:01:55;;;;;;;1.50;0.93;;;23.80;99.90;;;;;;4920364;29;20595;-71
2021/08/02 12:04:24;;;;;;;2.17;1.00;;;24.60;99.90;;;;;;4920312;29;20480;-73
2021/08/02 12:06:53;;;;;;;1.80;1.33;;;24.80;99.90;;;;;;4920294;29;20489;-72
2021/08/02 12:09:32;;;;;;;2.00;1.00;;;24.30;99.90;;;;;;4919801;29;20798;-72
2021/08/02 12:12:01;;;;;;;2.43;1.43;;;23.50;99.90;;;;;;4919508;29;20465;-71
2021/08/02 12:14:30;;;;;;;2.90;1.37;;;22.90;99.90;;;;;;4919641;29;20565;-72
2021/08/02 12:17:08;;;;;;;2.63;1.03;;;22.40;99.90;;;;;;4919858;29;20525;-72
2021/08/02 12:19:46;;;;;;;2.40;1.10;;;22.00;99.90;;;;;;4920062;29;20469;-71
2021/08/02 12:22:13;;;;;;;3.10;1.10;;;21.70;99.90;;;;;;4920001;29;20461;-72
2021/08/02 12:24:50;;;;;;;4.80;1.00;;;21.40;99.90;;;;;;4919538;29;20902;-73
2021/08/02 12:27:18;;;;;;;1.70;1.10;;;21.30;99.90;;;;;;4919957;29;20500;-72
2021/08/02 12:29:56;;;;;;;2.47;1.30;;;21.20;99.90;;;;;;4919434;29;20464;-73
2021/08/02 12:32:35;;;;;;;1.77;1.10;;;21.20;99.90;;;;;;4919702;29;20537;-72
2021/08/02 12:35:07;;;;;;;1.50;1.20;;;21.30;99.90;;;;;;4919589;29;20491;-72
2021/08/02 12:37:34;;;;;;;1.97;0.90;;;22.00;99.90;;;;;;4919562;29;20799;-72
2021/08/02 12:40:01;;;;;;;2.07;1.30;;;23.10;99.90;;;;;;4919453;29;20477;-72
2021/08/02 12:42:29;;;;;;;1.63;1.10;;;24.20;99.90;;;;;;4919675;29;20457;-72
2021/08/02 12:44:56;;;;;;;1.40;0.93;;;24.60;99.90;;;;;;4919616;29;20783;-73
2021/08/02 12:47:23;;;;;;;1.93;0.90;;;24.00;99.90;;;;;;4919447;29;20608;-72
2021/08/02 12:49:50;;;;;;;2.30;1.00;;;23.50;99.90;;;;;;4919151;29;20521;-72
2021/08/02 12:52:18;;;;;;;2.27;1.23;;;23.10;99.90;;;;;;4919225;29;20461;-72
2021/08/02 12:54:45;;;;;;;3.37;1.10;;;22.60;99.90;;;;;;4918624;29;20462;-72